Bissett, Canada
Current Conditions -  °F | °C
As of 10:00 AM on Thursday 23 Oct 2014 (Local Time) from CYRL Reporting Station
Overcast Overcast  
Wind Chill: 11°   Ceiling: 900
Heat Index: 11°   Visibility: 15mi
Dew Point:   Wind: 7mph
Humidity: 88%   Direction: 190°S
Pressure: 29.78"   Gusts: NA
Location:  51.02°N, 95.67°W
Report Text: CYRL 231500Z 19006KT 15SM BKN009 OVC013 11/09 A2978 RMK SC5SC3 SLP091
Loading
Personal Weather Stations






























Interactive Weather Map
Tropical Storm Tracking
New forecast layout! Learn more

10-Day Weather Forecast

Advertisements
Track Severe Weather on mobile